sensor_id;sensor_type;location;lat;lon;timestamp;temperature;humidity
22779;DHT22;11556;51.194;3.800;2023-11-18T00:01:32;7.80;99.90
22779;DHT22;11556;51.194;3.800;2023-11-18T00:03:59;7.80;99.90
22779;DHT22;11556;51.194;3.800;2023-11-18T00:06:25;7.80;99.90
22779;DHT22;11556;51.194;3.800;2023-11-18T00:08:52;7.80;99.90
22779;DHT22;11556;51.194;3.800;2023-11-18T00:11:21;7.90;99.90
22779;DHT22;11556;51.194;3.800;2023-11-18T00:13:53;7.90;99.90
22779;DHT22;11556;51.194;3.800;2023-11-18T00:16:19;7.90;99.90
22779;DHT22;11556;51.194;3.800;2023-11-18T00:18:45;8.00;99.90
22779;DHT22;11556;51.194;3.800;2023-11-18T00:21:11;8.00;99.90
22779;DHT22;11556;51.194;3.800;2023-11-18T00:23:37;7.80;99.90
22779;DHT22;11556;51.194;3.800;2023-11-18T00:26:06;7.80;99.90
22779;DHT22;11556;51.194;3.800;2023-11-18T00:28:32;7.80;99.90
22779;DHT22;11556;51.194;3.800;2023-11-18T00:31:01;7.90;99.90
22779;DHT22;11556;51.194;3.800;2023-11-18T00:33:29;7.90;99.90
22779;DHT22;11556;51.194;3.800;2023-11-18T00:35:55;7.90;99.90
22779;DHT22;11556;51.194;3.800;2023-11-18T00:38:21;7.80;99.90
22779;DHT22;11556;51.194;3.800;2023-11-18T00:40:46;7.90;99.90
22779;DHT22;11556;51.194;3.800;2023-11-18T00:43:12;7.90;99.90
22779;DHT22;11556;51.194;3.800;2023-11-18T00:45:39;7.90;99.90
22779;DHT22;11556;51.194;3.800;2023-11-18T00:48:06;8.00;99.90
22779;DHT22;11556;51.194;3.800;2023-11-18T00:50:31;8.00;99.90
22779;DHT22;11556;51.194;3.800;2023-11-18T00:52:58;7.90;99.90
22779;DHT22;11556;51.194;3.800;2023-11-18T00:55:24;8.00;99.90
22779;DHT22;11556;51.194;3.800;2023-11-18T00:57:50;8.00;99.90
22779;DHT22;11556;51.194;3.800;2023-11-18T01:00:15;8.00;99.90
22779;DHT22;11556;51.194;3.800;2023-11-18T01:02:48;8.00;99.90
22779;DHT22;11556;51.194;3.800;2023-11-18T01:05:15;8.00;99.90
22779;DHT22;11556;51.194;3.800;2023-11-18T01:07:41;8.00;99.90
22779;DHT22;11556;51.194;3.800;2023-11-18T01:10:07;8.00;99.90
22779;DHT22;11556;51.194;3.800;2023-11-18T01:12:35;8.00;99.90
22779;DHT22;11556;51.194;3.800;2023-11-18T01:15:01;7.90;99.90
22779;DHT22;11556;51.194;3.800;2023-11-18T01:17:28;7.90;99.90
22779;DHT22;11556;51.194;3.800;2023-11-18T01:19:54;7.90;99.90
22779;DHT22;11556;51.194;3.800;2023-11-18T01:22:20;7.90;99.90
22779;DHT22;11556;51.194;3.800;2023-11-18T01:24:46;7.90;99.90
22779;DHT22;11556;51.194;3.800;2023-11-18T01:27:12;8.00;99.90
22779;DHT22;11556;51.194;3.800;2023-11-18T01:29:40;8.00;99.90
22779;DHT22;11556;51.194;3.800;2023-11-18T01:32:07;8.00;99.90
22779;DHT22;11556;51.194;3.800;2023-11-18T01:34:37;8.00;99.90
22779;DHT22;11556;51.194;3.800;2023-11-18T01:37:07;8.10;99.90
22779;DHT22;11556;51.194;3.800;2023-11-18T01:39:36;8.10;99.90
22779;DHT22;11556;51.194;3.800;2023-11-18T01:42:02;8.00;99.90
22779;DHT22;11556;51.194;3.800;2023-11-18T01:44:29;8.00;99.90
22779;DHT22;11556;51.194;3.800;2023-11-18T01:46:57;8.00;99.90
22779;DHT22;11556;51.194;3.800;2023-11-18T01:49:25;7.90;99.90
22779;DHT22;11556;51.194;3.800;2023-11-18T01:51:53;7.90;99.90
22779;DHT22;11556;51.194;3.800;2023-11-18T01:54:19;8.00;99.90
22779;DHT22;11556;51.194;3.800;2023-11-18T01:56:50;7.90;99.90
22779;DHT22;11556;51.194;3.800;2023-11-18T01:59:17;7.90;99.90
22779;DHT22;11556;51.194;3.800;2023-11-18T02:01:52;7.90;99.90
22779;DHT22;11556;51.194;3.800;2023-11-18T02:04:20;7.80;99.90
22779;DHT22;11556;51.194;3.800;2023-11-18T02:06:52;7.80;99.90
22779;DHT22;11556;51.194;3.800;2023-11-18T02:09:22;7.80;99.90
22779;DHT22;11556;51.194;3.800;2023-11-18T02:12:29;7.80;99.90
22779;DHT22;11556;51.194;3.800;2023-11-18T02:15:00;7.90;99.90
22779;DHT22;11556;51.194;3.800;2023-11-18T02:17:30;8.00;99.90
22779;DHT22;11556;51.194;3.800;2023-11-18T02:19:57;8.00;99.90
22779;DHT22;11556;51.194;3.800;2023-11-18T02:22:25;8.10;99.90
22779;DHT22;11556;51.194;3.800;2023-11-18T02:24:52;8.10;99.90
22779;DHT22;11556;51.194;3.800;2023-11-18T02:27:18;8.10;99.90
22779;DHT22;11556;51.194;3.800;2023-11-18T02:29:50;8.10;99.90
22779;DHT22;11556;51.194;3.800;2023-11-18T02:32:39;8.00;99.90
22779;DHT22;11556;51.194;3.800;2023-11-18T02:37:53;7.90;99.90
22779;DHT22;11556;51.194;3.800;2023-11-18T02:40:29;7.90;99.90
22779;DHT22;11556;51.194;3.800;2023-11-18T02:43:01;7.90;99.90
22779;DHT22;11556;51.194;3.800;2023-11-18T02:45:31;7.80;99.90
22779;DHT22;11556;51.194;3.800;2023-11-18T02:47:57;7.60;99.90
22779;DHT22;11556;51.194;3.800;2023-11-18T02:50:24;7.60;99.90
22779;DHT22;11556;51.194;3.800;2023-11-18T02:52:50;7.50;99.90
22779;DHT22;11556;51.194;3.800;2023-11-18T02:55:15;7.50;99.90
22779;DHT22;11556;51.194;3.800;2023-11-18T02:57:41;7.50;99.90
22779;DHT22;11556;51.194;3.800;2023-11-18T03:00:07;7.50;99.90
22779;DHT22;11556;51.194;3.800;2023-11-18T03:02:49;7.60;99.90
22779;DHT22;11556;51.194;3.800;2023-11-18T03:05:16;7.60;99.90
22779;DHT22;11556;51.194;3.800;2023-11-18T03:07:42;7.60;99.90
22779;DHT22;11556;51.194;3.800;2023-11-18T03:10:09;7.60;99.90
22779;DHT22;11556;51.194;3.800;2023-11-18T03:12:38;7.70;99.90
22779;DHT22;11556;51.194;3.800;2023-11-18T03:15:05;7.70;99.90
22779;DHT22;11556;51.194;3.800;2023-11-18T03:17:34;7.80;99.90
22779;DHT22;11556;51.194;3.800;2023-11-18T03:20:00;7.90;99.90
22779;DHT22;11556;51.194;3.800;2023-11-18T03:22:25;7.80;99.90
22779;DHT22;11556;51.194;3.800;2023-11-18T03:24:52;7.70;99.90
22779;DHT22;11556;51.194;3.800;2023-11-18T03:27:17;7.70;99.90
22779;DHT22;11556;51.194;3.800;2023-11-18T03:29:44;7.70;99.90
22779;DHT22;11556;51.194;3.800;2023-11-18T03:32:11;7.80;99.90
22779;DHT22;11556;51.194;3.800;2023-11-18T03:34:38;7.80;99.90
22779;DHT22;11556;51.194;3.800;2023-11-18T03:37:03;7.80;99.90
22779;DHT22;11556;51.194;3.800;2023-11-18T03:39:29;7.80;99.90
22779;DHT22;11556;51.194;3.800;2023-11-18T03:41:54;7.80;99.90
22779;DHT22;11556;51.194;3.800;2023-11-18T03:44:22;7.80;99.90
22779;DHT22;11556;51.194;3.800;2023-11-18T03:46:49;7.90;99.90
22779;DHT22;11556;51.194;3.800;2023-11-18T03:49:15;7.80;99.90
22779;DHT22;11556;51.194;3.800;2023-11-18T03:51:40;7.90;99.90
22779;DHT22;11556;51.194;3.800;2023-11-18T03:54:06;7.90;99.90
22779;DHT22;11556;51.194;3.800;2023-11-18T03:56:34;7.80;99.90
22779;DHT22;11556;51.194;3.800;2023-11-18T03:58:59;7.90;99.90
22779;DHT22;11556;51.194;3.800;2023-11-18T04:01:26;7.90;99.90
22779;DHT22;11556;51.194;3.800;2023-11-18T04:03:55;7.90;99.90
22779;DHT22;11556;51.194;3.800;2023-11-18T04:06:21;7.90;99.90
22779;DHT22;11556;51.194;3.800;2023-11-18T04:08:47;7.90;99.90
22779;DHT22;11556;51.194;3.800;2023-11-18T04:11:14;7.90;99.90
22779;DHT22;11556;51.194;3.800;2023-11-18T04:13:40;7.90;99.90
22779;DHT22;11556;51.194;3.800;2023-11-18T04:16:15;7.90;99.90
22779;DHT22;11556;51.194;3.800;2023-11-18T04:18:41;7.90;99.90
22779;DHT22;11556;51.194;3.800;2023-11-18T04:21:08;7.90;99.90
22779;DHT22;11556;51.194;3.800;2023-11-18T04:23:37;8.00;99.90
22779;DHT22;11556;51.194;3.800;2023-11-18T04:26:04;8.00;99.90
22779;DHT22;11556;51.194;3.800;2023-11-18T04:28:30;7.90;99.90
22779;DHT22;11556;51.194;3.800;2023-11-18T04:30:56;8.00;99.90
22779;DHT22;11556;51.194;3.800;2023-11-18T04:33:22;8.00;99.90
22779;DHT22;11556;51.194;3.800;2023-11-18T04:35:50;8.00;99.90
22779;DHT22;11556;51.194;3.800;2023-11-18T04:38:15;8.00;99.90
22779;DHT22;11556;51.194;3.800;2023-11-18T04:40:41;8.00;99.90
22779;DHT22;11556;51.194;3.800;2023-11-18T04:43:10;8.10;99.90
22779;DHT22;11556;51.194;3.800;2023-11-18T04:45:36;8.10;99.90
22779;DHT22;11556;51.194;3.800;2023-11-18T04:48:03;8.10;99.90
22779;DHT22;11556;51.194;3.800;2023-11-18T04:50:29;8.20;99.90
22779;DHT22;11556;51.194;3.800;2023-11-18T04:52:58;8.30;99.90
22779;DHT22;11556;51.194;3.800;2023-11-18T04:55:24;8.30;99.90
22779;DHT22;11556;51.194;3.800;2023-11-18T04:57:53;8.40;99.90
22779;DHT22;11556;51.194;3.800;2023-11-18T05:00:19;8.60;99.90
22779;DHT22;11556;51.194;3.800;2023-11-18T05:02:45;8.40;99.90
22779;DHT22;11556;51.194;3.800;2023-11-18T05:05:15;8.30;99.90
22779;DHT22;11556;51.194;3.800;2023-11-18T05:07:41;8.20;99.90
22779;DHT22;11556;51.194;3.800;2023-11-18T05:10:08;8.30;99.90
22779;DHT22;11556;51.194;3.800;2023-11-18T05:12:34;8.30;99.90
22779;DHT22;11556;51.194;3.800;2023-11-18T05:15:00;8.40;99.90
22779;DHT22;11556;51.194;3.800;2023-11-18T05:17:26;8.40;99.90
22779;DHT22;11556;51.194;3.800;2023-11-18T05:19:53;8.50;99.90
22779;DHT22;11556;51.194;3.800;2023-11-18T05:22:19;8.50;99.90
22779;DHT22;11556;51.194;3.800;2023-11-18T05:24:46;8.50;99.90
22779;DHT22;11556;51.194;3.800;2023-11-18T05:27:11;8.50;99.90
22779;DHT22;11556;51.194;3.800;2023-11-18T05:29:37;8.50;99.90
22779;DHT22;11556;51.194;3.800;2023-11-18T05:32:04;8.50;99.90
22779;DHT22;11556;51.194;3.800;2023-11-18T05:34:29;8.50;99.90
22779;DHT22;11556;51.194;3.800;2023-11-18T05:36:55;8.50;99.90
22779;DHT22;11556;51.194;3.800;2023-11-18T05:39:22;8.40;99.90
22779;DHT22;11556;51.194;3.800;2023-11-18T05:41:50;8.50;99.90
22779;DHT22;11556;51.194;3.800;2023-11-18T05:44:17;8.50;99.90
22779;DHT22;11556;51.194;3.800;2023-11-18T05:46:45;8.50;99.90
22779;DHT22;11556;51.194;3.800;2023-11-18T05:49:12;8.50;99.90
22779;DHT22;11556;51.194;3.800;2023-11-18T05:51:39;8.60;99.90
22779;DHT22;11556;51.194;3.800;2023-11-18T05:54:06;8.70;99.90
22779;DHT22;11556;51.194;3.800;2023-11-18T05:56:32;8.80;99.90
22779;DHT22;11556;51.194;3.800;2023-11-18T05:58:58;8.90;99.90
22779;DHT22;11556;51.194;3.800;2023-11-18T06:01:24;8.90;99.90
22779;DHT22;11556;51.194;3.800;2023-11-18T06:03:52;8.90;99.90
22779;DHT22;11556;51.194;3.800;2023-11-18T06:06:18;9.00;99.90
22779;DHT22;11556;51.194;3.800;2023-11-18T06:08:46;9.10;99.90
22779;DHT22;11556;51.194;3.800;2023-11-18T06:11:14;9.10;99.90
22779;DHT22;11556;51.194;3.800;2023-11-18T06:13:44;9.10;99.90
22779;DHT22;11556;51.194;3.800;2023-11-18T06:16:23;9.20;99.90
22779;DHT22;11556;51.194;3.800;2023-11-18T06:18:56;9.20;99.90
22779;DHT22;11556;51.194;3.800;2023-11-18T06:21:24;9.30;99.90
22779;DHT22;11556;51.194;3.800;2023-11-18T06:23:52;9.40;99.90
22779;DHT22;11556;51.194;3.800;2023-11-18T06:26:20;9.30;99.90
22779;DHT22;11556;51.194;3.800;2023-11-18T06:28:47;9.20;99.90
22779;DHT22;11556;51.194;3.800;2023-11-18T06:31:14;9.20;99.90
22779;DHT22;11556;51.194;3.800;2023-11-18T06:33:46;9.20;99.90
22779;DHT22;11556;51.194;3.800;2023-11-18T06:38:42;9.20;99.90
22779;DHT22;11556;51.194;3.800;2023-11-18T06:41:10;9.20;99.90
22779;DHT22;11556;51.194;3.800;2023-11-18T06:43:38;9.30;99.90
22779;DHT22;11556;51.194;3.800;2023-11-18T06:46:29;9.30;99.90
22779;DHT22;11556;51.194;3.800;2023-11-18T06:48:59;9.20;99.90
22779;DHT22;11556;51.194;3.800;2023-11-18T06:51:29;9.30;99.90
22779;DHT22;11556;51.194;3.800;2023-11-18T06:53:55;9.30;99.90
22779;DHT22;11556;51.194;3.800;2023-11-18T06:56:22;9.40;99.90
22779;DHT22;11556;51.194;3.800;2023-11-18T06:58:47;9.30;99.90
22779;DHT22;11556;51.194;3.800;2023-11-18T07:01:13;9.30;99.90
22779;DHT22;11556;51.194;3.800;2023-11-18T07:03:44;9.20;99.90
22779;DHT22;11556;51.194;3.800;2023-11-18T07:06:10;9.20;99.90
22779;DHT22;11556;51.194;3.800;2023-11-18T07:08:36;9.30;99.90
22779;DHT22;11556;51.194;3.800;2023-11-18T07:11:03;9.20;99.90
22779;DHT22;11556;51.194;3.800;2023-11-18T07:13:29;9.20;99.90
22779;DHT22;11556;51.194;3.800;2023-11-18T07:15:55;9.10;99.90
22779;DHT22;11556;51.194;3.800;2023-11-18T07:18:23;9.10;99.90
22779;DHT22;11556;51.194;3.800;2023-11-18T07:20:49;9.00;99.90
22779;DHT22;11556;51.194;3.800;2023-11-18T07:23:17;9.10;99.90
22779;DHT22;11556;51.194;3.800;2023-11-18T07:25:43;9.00;99.90
22779;DHT22;11556;51.194;3.800;2023-11-18T07:28:13;9.10;99.90
22779;DHT22;11556;51.194;3.800;2023-11-18T07:30:45;9.10;99.90
22779;DHT22;11556;51.194;3.800;2023-11-18T07:33:16;9.10;99.90
22779;DHT22;11556;51.194;3.800;2023-11-18T07:35:46;9.10;99.90
22779;DHT22;11556;51.194;3.800;2023-11-18T07:38:12;9.00;99.90
22779;DHT22;11556;51.194;3.800;2023-11-18T07:40:38;8.80;99.90
22779;DHT22;11556;51.194;3.800;2023-11-18T07:43:10;8.70;99.90
22779;DHT22;11556;51.194;3.800;2023-11-18T07:45:37;8.70;99.90
22779;DHT22;11556;51.194;3.800;2023-11-18T07:48:09;8.60;99.90
22779;DHT22;11556;51.194;3.800;2023-11-18T07:50:38;8.60;99.90
22779;DHT22;11556;51.194;3.800;2023-11-18T07:53:07;8.40;99.90
22779;DHT22;11556;51.194;3.800;2023-11-18T07:55:34;8.50;99.90
22779;DHT22;11556;51.194;3.800;2023-11-18T07:58:03;8.40;99.90
22779;DHT22;11556;51.194;3.800;2023-11-18T08:00:37;8.40;99.90
22779;DHT22;11556;51.194;3.800;2023-11-18T08:03:05;8.40;99.90
22779;DHT22;11556;51.194;3.800;2023-11-18T08:05:32;8.40;99.90
22779;DHT22;11556;51.194;3.800;2023-11-18T08:07:58;8.40;99.90
22779;DHT22;11556;51.194;3.800;2023-11-18T08:10:24;8.40;99.90
22779;DHT22;11556;51.194;3.800;2023-11-18T08:12:50;8.40;99.90
22779;DHT22;11556;51.194;3.800;2023-11-18T08:15:17;8.40;99.90
22779;DHT22;11556;51.194;3.800;2023-11-18T08:17:44;8.40;99.90
22779;DHT22;11556;51.194;3.800;2023-11-18T08:20:10;8.40;99.90
22779;DHT22;11556;51.194;3.800;2023-11-18T08:22:43;8.40;99.90
22779;DHT22;11556;51.194;3.800;2023-11-18T08:25:11;8.40;99.90
22779;DHT22;11556;51.194;3.800;2023-11-18T08:27:39;8.40;99.90
22779;DHT22;11556;51.194;3.800;2023-11-18T08:30:06;8.40;99.90
22779;DHT22;11556;51.194;3.800;2023-11-18T08:32:40;8.40;99.90
22779;DHT22;11556;51.194;3.800;2023-11-18T08:35:09;8.40;99.90
22779;DHT22;11556;51.194;3.800;2023-11-18T08:37:36;8.50;99.90
22779;DHT22;11556;51.194;3.800;2023-11-18T08:40:06;8.50;99.90
22779;DHT22;11556;51.194;3.800;2023-11-18T08:42:43;8.50;99.90
22779;DHT22;11556;51.194;3.800;2023-11-18T08:45:14;8.50;99.90
22779;DHT22;11556;51.194;3.800;2023-11-18T08:47:43;8.50;99.90
22779;DHT22;11556;51.194;3.800;2023-11-18T08:50:10;8.40;99.90
22779;DHT22;11556;51.194;3.800;2023-11-18T08:52:38;8.40;99.90
22779;DHT22;11556;51.194;3.800;2023-11-18T08:55:10;8.40;99.90
22779;DHT22;11556;51.194;3.800;2023-11-18T08:57:58;8.50;99.90
22779;DHT22;11556;51.194;3.800;2023-11-18T09:00:28;8.40;99.90
22779;DHT22;11556;51.194;3.800;2023-11-18T09:03:13;8.50;99.90
22779;DHT22;11556;51.194;3.800;2023-11-18T09:06:13;8.40;99.90
22779;DHT22;11556;51.194;3.800;2023-11-18T09:08:51;8.50;99.90
22779;DHT22;11556;51.194;3.800;2023-11-18T09:11:21;8.50;99.90
22779;DHT22;11556;51.194;3.800;2023-11-18T09:13:50;8.60;99.90
22779;DHT22;11556;51.194;3.800;2023-11-18T09:16:20;8.60;99.90
22779;DHT22;11556;51.194;3.800;2023-11-18T09:18:51;8.60;99.90
22779;DHT22;11556;51.194;3.800;2023-11-18T09:21:17;8.60;99.90
22779;DHT22;11556;51.194;3.800;2023-11-18T09:23:50;8.70;99.90
22779;DHT22;11556;51.194;3.800;2023-11-18T09:26:16;8.70;99.90
22779;DHT22;11556;51.194;3.800;2023-11-18T09:28:42;8.70;99.90
22779;DHT22;11556;51.194;3.800;2023-11-18T09:31:10;8.70;99.90
22779;DHT22;11556;51.194;3.800;2023-11-18T09:33:40;8.70;99.90
22779;DHT22;11556;51.194;3.800;2023-11-18T09:36:11;8.60;99.90
22779;DHT22;11556;51.194;3.800;2023-11-18T09:38:39;8.60;99.90
22779;DHT22;11556;51.194;3.800;2023-11-18T09:41:09;8.60;99.90
22779;DHT22;11556;51.194;3.800;2023-11-18T09:43:38;8.60;99.90
22779;DHT22;11556;51.194;3.800;2023-11-18T09:46:26;8.60;99.90
22779;DHT22;11556;51.194;3.800;2023-11-18T09:52:07;8.60;99.90
22779;DHT22;11556;51.194;3.800;2023-11-18T09:55:12;8.60;99.90
22779;DHT22;11556;51.194;3.800;2023-11-18T09:57:48;8.70;99.90
22779;DHT22;11556;51.194;3.800;2023-11-18T10:00:22;8.70;99.90
22779;DHT22;11556;51.194;3.800;2023-11-18T10:02:58;8.80;99.90
22779;DHT22;11556;51.194;3.800;2023-11-18T10:05:26;8.70;99.90
22779;DHT22;11556;51.194;3.800;2023-11-18T10:07:53;8.70;99.90
22779;DHT22;11556;51.194;3.800;2023-11-18T10:10:20;8.70;99.90
22779;DHT22;11556;51.194;3.800;2023-11-18T10:12:50;8.70;99.90
22779;DHT22;11556;51.194;3.800;2023-11-18T10:15:23;8.70;99.90
22779;DHT22;11556;51.194;3.800;2023-11-18T10:17:50;8.70;99.90
22779;DHT22;11556;51.194;3.800;2023-11-18T10:20:46;8.80;99.90
22779;DHT22;11556;51.194;3.800;2023-11-18T10:23:16;8.80;99.90
22779;DHT22;11556;51.194;3.800;2023-11-18T10:25:53;8.80;99.90
22779;DHT22;11556;51.194;3.800;2023-11-18T10:28:23;8.80;99.90
22779;DHT22;11556;51.194;3.800;2023-11-18T10:30:50;8.90;99.90
22779;DHT22;11556;51.194;3.800;2023-11-18T10:33:17;8.90;99.90
22779;DHT22;11556;51.194;3.800;2023-11-18T10:35:50;9.00;99.90
22779;DHT22;11556;51.194;3.800;2023-11-18T10:38:21;9.00;99.90
22779;DHT22;11556;51.194;3.800;2023-11-18T10:40:55;9.00;99.90
22779;DHT22;11556;51.194;3.800;2023-11-18T10:43:21;9.00;99.90
22779;DHT22;11556;51.194;3.800;2023-11-18T10:46:04;9.00;99.90
22779;DHT22;11556;51.194;3.800;2023-11-18T10:48:30;9.00;99.90
22779;DHT22;11556;51.194;3.800;2023-11-18T10:50:56;9.00;99.90
22779;DHT22;11556;51.194;3.800;2023-11-18T10:53:24;9.10;99.90
22779;DHT22;11556;51.194;3.800;2023-11-18T10:55:52;9.10;99.90
22779;DHT22;11556;51.194;3.800;2023-11-18T10:58:17;9.00;99.90
22779;DHT22;11556;51.194;3.800;2023-11-18T11:00:51;9.00;99.90
22779;DHT22;11556;51.194;3.800;2023-11-18T11:03:21;9.00;99.90
22779;DHT22;11556;51.194;3.800;2023-11-18T11:05:49;9.00;99.90
22779;DHT22;11556;51.194;3.800;2023-11-18T11:08:15;9.10;99.90
22779;DHT22;11556;51.194;3.800;2023-11-18T11:10:44;9.00;99.90
22779;DHT22;11556;51.194;3.800;2023-11-18T11:13:10;9.10;99.90
22779;DHT22;11556;51.194;3.800;2023-11-18T11:15:43;9.10;99.90
22779;DHT22;11556;51.194;3.800;2023-11-18T11:18:21;9.10;99.90
22779;DHT22;11556;51.194;3.800;2023-11-18T11:21:13;9.10;99.90
22779;DHT22;11556;51.194;3.800;2023-11-18T11:23:55;9.10;99.90
22779;DHT22;11556;51.194;3.800;2023-11-18T11:29:02;9.10;99.90
22779;DHT22;11556;51.194;3.800;2023-11-18T11:31:39;9.10;99.90
22779;DHT22;11556;51.194;3.800;2023-11-18T11:34:19;9.10;99.90
22779;DHT22;11556;51.194;3.800;2023-11-18T11:36:49;9.20;99.90
22779;DHT22;11556;51.194;3.800;2023-11-18T11:39:17;9.20;99.90
22779;DHT22;11556;51.194;3.800;2023-11-18T11:41:46;9.30;99.90
22779;DHT22;11556;51.194;3.800;2023-11-18T11:44:16;9.40;99.90
22779;DHT22;11556;51.194;3.800;2023-11-18T11:46:48;9.40;99.90
22779;DHT22;11556;51.194;3.800;2023-11-18T11:49:20;9.40;99.90
22779;DHT22;11556;51.194;3.800;2023-11-18T11:52:00;9.50;99.90
22779;DHT22;11556;51.194;3.800;2023-11-18T11:54:34;9.50;99.90
22779;DHT22;11556;51.194;3.800;2023-11-18T11:57:02;9.70;99.90
22779;DHT22;11556;51.194;3.800;2023-11-18T12:02:25;9.70;99.90
22779;DHT22;11556;51.194;3.800;2023-11-18T12:04:55;9.60;99.90
22779;DHT22;11556;51.194;3.800;2023-11-18T12:07:26;9.60;99.90
22779;DHT22;11556;51.194;3.800;2023-11-18T12:10:00;9.60;99.90
22779;DHT22;11556;51.194;3.800;2023-11-18T12:12:32;9.70;99.90
22779;DHT22;11556;51.194;3.800;2023-11-18T12:14:59;9.60;99.90
22779;DHT22;11556;51.194;3.800;2023-11-18T12:20:42;9.70;99.90
22779;DHT22;11556;51.194;3.800;2023-11-18T12:23:10;9.80;99.90
22779;DHT22;11556;51.194;3.800;2023-11-18T12:25:47;9.80;99.90
22779;DHT22;11556;51.194;3.800;2023-11-18T12:28:31;9.80;99.90
22779;DHT22;11556;51.194;3.800;2023-11-18T12:31:04;9.80;99.90
22779;DHT22;11556;51.194;3.800;2023-11-18T12:34:08;9.80;99.90
22779;DHT22;11556;51.194;3.800;2023-11-18T12:37:01;9.80;99.90
22779;DHT22;11556;51.194;3.800;2023-11-18T12:42:09;9.90;99.90
22779;DHT22;11556;51.194;3.800;2023-11-18T12:47:52;10.00;99.90
22779;DHT22;11556;51.194;3.800;2023-11-18T12:50:19;10.00;99.90
22779;DHT22;11556;51.194;3.800;2023-11-18T12:52:53;9.90;99.90
22779;DHT22;11556;51.194;3.800;2023-11-18T12:55:20;9.90;99.90
22779;DHT22;11556;51.194;3.800;2023-11-18T12:57:48;10.00;99.90
22779;DHT22;11556;51.194;3.800;2023-11-18T13:00:16;10.10;99.90
22779;DHT22;11556;51.194;3.800;2023-11-18T13:02:44;10.10;99.90
22779;DHT22;11556;51.194;3.800;2023-11-18T13:05:10;10.10;99.90
22779;DHT22;11556;51.194;3.800;2023-11-18T13:07:36;10.10;99.90
22779;DHT22;11556;51.194;3.800;2023-11-18T13:10:02;10.10;99.90
22779;DHT22;11556;51.194;3.800;2023-11-18T13:12:30;10.10;99.90
22779;DHT22;11556;51.194;3.800;2023-11-18T13:14:56;10.20;99.90
22779;DHT22;11556;51.194;3.800;2023-11-18T13:17:22;10.10;99.90
22779;DHT22;11556;51.194;3.800;2023-11-18T13:19:48;10.10;99.90
22779;DHT22;11556;51.194;3.800;2023-11-18T13:22:17;10.20;99.90
22779;DHT22;11556;51.194;3.800;2023-11-18T13:24:45;10.30;99.90
22779;DHT22;11556;51.194;3.800;2023-11-18T13:27:14;10.30;99.90
22779;DHT22;11556;51.194;3.800;2023-11-18T13:29:44;10.30;99.90
22779;DHT22;11556;51.194;3.800;2023-11-18T13:32:11;10.20;99.90
22779;DHT22;11556;51.194;3.800;2023-11-18T13:34:39;10.20;99.90
22779;DHT22;11556;51.194;3.800;2023-11-18T13:37:07;10.20;99.90
22779;DHT22;11556;51.194;3.800;2023-11-18T13:39:36;10.10;99.90
22779;DHT22;11556;51.194;3.800;2023-11-18T13:44:45;10.30;99.90
22779;DHT22;11556;51.194;3.800;2023-11-18T13:47:12;10.40;99.90
22779;DHT22;11556;51.194;3.800;2023-11-18T13:49:38;10.40;99.90
22779;DHT22;11556;51.194;3.800;2023-11-18T13:52:08;10.30;99.90
22779;DHT22;11556;51.194;3.800;2023-11-18T13:54:37;10.40;99.90
22779;DHT22;11556;51.194;3.800;2023-11-18T13:57:03;10.40;99.90
22779;DHT22;11556;51.194;3.800;2023-11-18T13:59:29;10.40;99.90
22779;DHT22;11556;51.194;3.800;2023-11-18T14:01:56;10.50;99.90
22779;DHT22;11556;51.194;3.800;2023-11-18T14:04:34;10.50;99.90
22779;DHT22;11556;51.194;3.800;2023-11-18T14:07:01;10.40;99.90
22779;DHT22;11556;51.194;3.800;2023-11-18T14:09:31;10.50;99.90
22779;DHT22;11556;51.194;3.800;2023-11-18T14:12:02;10.40;99.90
22779;DHT22;11556;51.194;3.800;2023-11-18T14:14:28;10.50;99.90
22779;DHT22;11556;51.194;3.800;2023-11-18T14:16:55;10.50;99.90
22779;DHT22;11556;51.194;3.800;2023-11-18T14:19:24;10.60;99.90
22779;DHT22;11556;51.194;3.800;2023-11-18T14:21:55;10.60;99.90
22779;DHT22;11556;51.194;3.800;2023-11-18T14:24:21;10.50;99.90
22779;DHT22;11556;51.194;3.800;2023-11-18T14:26:55;10.60;99.90
22779;DHT22;11556;51.194;3.800;2023-11-18T14:29:22;10.60;99.90
22779;DHT22;11556;51.194;3.800;2023-11-18T14:31:48;10.60;99.90
22779;DHT22;11556;51.194;3.800;2023-11-18T14:34:14;10.60;99.90
22779;DHT22;11556;51.194;3.800;2023-11-18T14:36:40;10.60;99.90
22779;DHT22;11556;51.194;3.800;2023-11-18T14:39:08;10.70;99.90
22779;DHT22;11556;51.194;3.800;2023-11-18T14:41:36;10.80;99.90
22779;DHT22;11556;51.194;3.800;2023-11-18T14:44:02;10.70;99.90
22779;DHT22;11556;51.194;3.800;2023-11-18T14:46:30;10.80;99.90
22779;DHT22;11556;51.194;3.800;2023-11-18T14:48:57;10.80;99.90
22779;DHT22;11556;51.194;3.800;2023-11-18T14:51:23;10.90;99.90
22779;DHT22;11556;51.194;3.800;2023-11-18T14:53:48;10.90;99.90
22779;DHT22;11556;51.194;3.800;2023-11-18T14:56:14;10.90;99.90
22779;DHT22;11556;51.194;3.800;2023-11-18T14:58:40;10.90;99.90
22779;DHT22;11556;51.194;3.800;2023-11-18T15:01:06;10.80;99.90
22779;DHT22;11556;51.194;3.800;2023-11-18T15:03:36;10.90;99.90
22779;DHT22;11556;51.194;3.800;2023-11-18T15:06:02;11.00;99.90
22779;DHT22;11556;51.194;3.800;2023-11-18T15:08:28;11.00;99.90
22779;DHT22;11556;51.194;3.800;2023-11-18T15:10:55;11.00;99.90
22779;DHT22;11556;51.194;3.800;2023-11-18T15:13:24;11.00;99.90
22779;DHT22;11556;51.194;3.800;2023-11-18T15:15:50;11.10;99.90
22779;DHT22;11556;51.194;3.800;2023-11-18T15:18:16;11.10;99.90
22779;DHT22;11556;51.194;3.800;2023-11-18T15:20:46;11.10;99.90
22779;DHT22;11556;51.194;3.800;2023-11-18T15:23:13;11.20;99.90
22779;DHT22;11556;51.194;3.800;2023-11-18T15:25:39;11.20;99.90
22779;DHT22;11556;51.194;3.800;2023-11-18T15:28:06;11.20;99.90
22779;DHT22;11556;51.194;3.800;2023-11-18T15:30:36;11.20;99.90
22779;DHT22;11556;51.194;3.800;2023-11-18T15:33:02;11.30;99.90
22779;DHT22;11556;51.194;3.800;2023-11-18T15:35:28;11.30;99.90
22779;DHT22;11556;51.194;3.800;2023-11-18T15:37:53;11.40;99.90
22779;DHT22;11556;51.194;3.800;2023-11-18T15:40:19;11.40;99.90
22779;DHT22;11556;51.194;3.800;2023-11-18T15:42:47;11.40;99.90
22779;DHT22;11556;51.194;3.800;2023-11-18T15:45:17;11.40;99.90
22779;DHT22;11556;51.194;3.800;2023-11-18T15:47:43;11.40;99.90
22779;DHT22;11556;51.194;3.800;2023-11-18T15:50:10;11.50;99.90
22779;DHT22;11556;51.194;3.800;2023-11-18T15:52:48;11.60;99.90
22779;DHT22;11556;51.194;3.800;2023-11-18T15:55:15;11.60;99.90
22779;DHT22;11556;51.194;3.800;2023-11-18T15:57:52;11.60;99.90
22779;DHT22;11556;51.194;3.800;2023-11-18T16:00:19;11.70;99.90
22779;DHT22;11556;51.194;3.800;2023-11-18T16:02:58;11.80;99.90
22779;DHT22;11556;51.194;3.800;2023-11-18T16:05:26;11.80;99.90
22779;DHT22;11556;51.194;3.800;2023-11-18T16:07:53;11.80;99.90
22779;DHT22;11556;51.194;3.800;2023-11-18T16:10:23;11.80;99.90
22779;DHT22;11556;51.194;3.800;2023-11-18T16:12:50;12.00;99.90
22779;DHT22;11556;51.194;3.800;2023-11-18T16:15:20;11.90;99.90
22779;DHT22;11556;51.194;3.800;2023-11-18T16:17:47;12.00;99.90
22779;DHT22;11556;51.194;3.800;2023-11-18T16:20:13;12.10;99.90